createdAt,value
2017-05-30T00:01:48.982Z,8.46
2017-05-30T00:04:15.702Z,9.72
2017-05-30T00:06:42.426Z,9.46
2017-05-30T00:09:09.171Z,9.16
2017-05-30T00:11:35.898Z,9.46
2017-05-30T00:14:02.620Z,9.94
2017-05-30T00:16:29.396Z,10.26
2017-05-30T00:18:56.121Z,8.72
2017-05-30T00:21:22.892Z,10.08
2017-05-30T00:23:49.615Z,9.94
2017-05-30T00:26:16.340Z,10.20
2017-05-30T00:28:43.065Z,9.66
2017-05-30T00:31:09.846Z,9.90
2017-05-30T00:33:36.573Z,10.68
2017-05-30T00:36:03.295Z,9.96
2017-05-30T00:38:30.064Z,9.90
2017-05-30T00:40:56.793Z,9.92
2017-05-30T00:43:23.531Z,11.12
2017-05-30T00:45:50.263Z,10.10
2017-05-30T00:48:16.986Z,10.62
2017-05-30T00:50:43.722Z,11.04
2017-05-30T00:53:10.493Z,10.28
2017-05-30T00:55:37.234Z,10.44
2017-05-30T00:58:03.953Z,9.64
2017-05-30T01:00:30.681Z,11.08
2017-05-30T01:02:57.984Z,9.54
2017-05-30T01:05:24.712Z,10.92
2017-05-30T01:07:51.459Z,10.54
2017-05-30T01:10:18.190Z,10.80
2017-05-30T01:12:44.921Z,10.54
2017-05-30T01:15:11.701Z,11.48
2017-05-30T01:17:38.444Z,10.84
2017-05-30T01:20:05.172Z,11.10
2017-05-30T01:22:31.894Z,11.26
2017-05-30T01:24:58.637Z,11.14
2017-05-30T01:27:25.368Z,11.30
2017-05-30T01:29:52.104Z,11.00
2017-05-30T01:32:18.833Z,10.30
2017-05-30T01:34:45.553Z,10.98
2017-05-30T01:37:12.327Z,10.70
2017-05-30T01:39:39.068Z,11.24
2017-05-30T01:42:05.792Z,11.08
2017-05-30T01:44:32.529Z,11.94
2017-05-30T01:46:59.276Z,11.32
2017-05-30T01:49:26.008Z,11.62
2017-05-30T01:51:52.754Z,10.62
2017-05-30T01:54:19.484Z,10.42
2017-05-30T01:56:46.218Z,11.48
2017-05-30T01:59:12.986Z,11.86
2017-05-30T02:01:39.718Z,12.00
2017-05-30T02:04:06.448Z,10.58
2017-05-30T02:06:33.173Z,11.56
2017-05-30T02:08:59.901Z,11.78
2017-05-30T02:11:26.634Z,13.20
2017-05-30T02:13:53.361Z,11.36
2017-05-30T02:16:20.085Z,11.28
2017-05-30T02:18:46.815Z,11.28
2017-05-30T02:21:13.556Z,11.74
2017-05-30T02:23:40.295Z,10.96
2017-05-30T02:26:07.026Z,12.28
2017-05-30T02:28:33.749Z,11.66
2017-05-30T02:31:00.487Z,11.74
2017-05-30T02:33:27.208Z,11.22
2017-05-30T02:35:54.000Z,11.88
2017-05-30T02:38:20.728Z,11.64
2017-05-30T02:40:47.460Z,12.16
2017-05-30T02:43:14.229Z,11.72
2017-05-30T02:45:41.430Z,11.60
2017-05-30T02:48:08.150Z,12.26
2017-05-30T02:50:34.874Z,11.64
2017-05-30T02:53:01.598Z,12.60
2017-05-30T02:55:28.334Z,12.94
2017-05-30T02:57:55.102Z,11.74
2017-05-30T03:00:21.893Z,11.54
2017-05-30T03:02:48.620Z,12.72
2017-05-30T03:05:15.365Z,11.82
2017-05-30T03:07:42.098Z,11.88
2017-05-30T03:10:08.821Z,12.22
2017-05-30T03:12:35.549Z,11.66
2017-05-30T03:15:02.275Z,11.64
2017-05-30T03:17:28.989Z,11.86
2017-05-30T03:19:55.724Z,11.40
2017-05-30T03:22:22.513Z,12.38
2017-05-30T03:24:49.245Z,11.66
2017-05-30T03:27:15.981Z,11.84
2017-05-30T03:29:42.703Z,11.68
2017-05-30T03:32:09.433Z,12.46
2017-05-30T03:34:36.203Z,13.92
2017-05-30T03:37:02.922Z,12.56
2017-05-30T03:39:29.663Z,12.76
2017-05-30T03:41:56.402Z,12.52
2017-05-30T03:44:24.125Z,12.68
2017-05-30T03:46:50.848Z,12.64
2017-05-30T03:49:17.613Z,12.92
2017-05-30T03:51:44.337Z,12.56
2017-05-30T03:54:11.079Z,12.56
2017-05-30T03:56:37.828Z,13.26
2017-05-30T03:59:04.556Z,12.94
2017-05-30T04:01:31.278Z,13.86
2017-05-30T04:03:58.018Z,12.90
2017-05-30T04:06:24.742Z,13.56
2017-05-30T04:08:51.495Z,13.54
2017-05-30T04:11:18.264Z,12.44
2017-05-30T04:13:44.984Z,12.84
2017-05-30T04:16:11.723Z,13.28
2017-05-30T04:18:38.454Z,12.62
2017-05-30T04:21:05.181Z,13.38
2017-05-30T04:23:31.916Z,14.98
2017-05-30T04:25:58.702Z,13.80
2017-05-30T04:28:25.432Z,13.62
2017-05-30T04:30:52.165Z,14.64
2017-05-30T04:33:18.914Z,14.78
2017-05-30T04:35:45.642Z,15.00
2017-05-30T04:38:12.392Z,14.90
2017-05-30T04:40:39.114Z,14.32
2017-05-30T04:43:05.839Z,15.52
2017-05-30T04:45:32.577Z,15.58
2017-05-30T04:47:59.341Z,15.10
2017-05-30T04:50:26.058Z,14.72
2017-05-30T04:52:52.790Z,15.72
2017-05-30T04:55:19.696Z,16.30
2017-05-30T04:57:46.420Z,15.84
2017-05-30T05:00:13.149Z,16.18
2017-05-30T05:02:39.921Z,16.28
2017-05-30T05:05:06.670Z,15.50
2017-05-30T05:07:35.077Z,15.90
2017-05-30T05:10:02.366Z,17.46
2017-05-30T05:12:29.145Z,16.18
2017-05-30T05:14:55.872Z,17.58
2017-05-30T05:17:22.593Z,15.58
2017-05-30T05:19:49.323Z,14.34
2017-05-30T05:22:16.098Z,14.28
2017-05-30T05:24:42.831Z,14.80
2017-05-30T05:27:10.633Z,15.58
2017-05-30T05:29:37.357Z,16.14
2017-05-30T05:32:04.139Z,16.28
2017-05-30T05:34:30.856Z,16.88
2017-05-30T05:36:57.649Z,18.22
2017-05-30T05:39:24.369Z,18.82
2017-05-30T05:41:51.097Z,17.72
2017-05-30T05:44:17.824Z,16.06
2017-05-30T05:46:44.586Z,18.10
2017-05-30T05:49:11.312Z,17.64
2017-05-30T05:51:38.045Z,17.76
2017-05-30T05:54:04.808Z,18.14
2017-05-30T05:56:31.546Z,18.30
2017-05-30T05:58:58.267Z,16.36
2017-05-30T06:01:25.001Z,16.44
2017-05-30T06:03:51.742Z,17.36
2017-05-30T06:06:18.476Z,15.62
2017-05-30T06:08:45.203Z,15.80
2017-05-30T06:11:11.933Z,16.42
2017-05-30T06:13:38.663Z,16.38
2017-05-30T06:16:05.456Z,14.58
2017-05-30T06:18:32.181Z,16.12
2017-05-30T06:20:58.914Z,15.54
2017-05-30T06:23:25.640Z,15.72
2017-05-30T06:25:52.363Z,15.04
2017-05-30T06:28:19.086Z,15.50
2017-05-30T06:30:45.862Z,15.52
2017-05-30T06:33:12.580Z,13.68
2017-05-30T06:35:39.296Z,14.64
2017-05-30T06:38:06.040Z,14.00
2017-05-30T06:40:32.760Z,14.22
2017-05-30T06:42:59.494Z,13.44
2017-05-30T06:45:26.216Z,12.02
2017-05-30T06:47:52.944Z,12.60
2017-05-30T06:50:19.665Z,14.10
2017-05-30T06:52:46.397Z,12.00
2017-05-30T06:55:13.136Z,13.70
2017-05-30T06:57:39.866Z,13.34
2017-05-30T07:00:06.616Z,14.16
2017-05-30T07:02:33.341Z,12.36
2017-05-30T07:05:00.062Z,12.66
2017-05-30T07:07:26.788Z,13.20
2017-05-30T07:09:53.512Z,13.44
2017-05-30T07:12:20.243Z,12.16
2017-05-30T07:14:47.820Z,12.56
2017-05-30T07:17:14.546Z,12.72
2017-05-30T07:19:41.280Z,12.52
2017-05-30T07:22:08.019Z,12.14
2017-05-30T07:24:34.742Z,12.60
2017-05-30T07:27:01.466Z,13.52
2017-05-30T07:29:28.199Z,13.20
2017-05-30T07:31:54.926Z,14.10
2017-05-30T07:34:21.654Z,13.50
2017-05-30T07:36:48.393Z,12.88
2017-05-30T07:39:15.125Z,12.98
2017-05-30T07:41:41.856Z,12.30
2017-05-30T07:44:08.598Z,12.46
2017-05-30T07:46:35.319Z,13.58
2017-05-30T07:49:02.045Z,12.38
2017-05-30T07:51:28.771Z,12.36
2017-05-30T07:53:55.499Z,13.46
2017-05-30T07:56:22.252Z,12.34
2017-05-30T07:58:48.987Z,13.42
2017-05-30T08:01:15.717Z,12.18
2017-05-30T08:03:42.446Z,12.76
2017-05-30T08:06:09.178Z,14.48
2017-05-30T08:08:35.904Z,12.88
2017-05-30T08:11:02.646Z,13.72
2017-05-30T08:13:29.421Z,13.14
2017-05-30T08:15:57.355Z,13.48
2017-05-30T08:18:24.157Z,12.72
2017-05-30T08:20:50.891Z,14.38
2017-05-30T08:23:17.615Z,13.80
2017-05-30T08:25:44.345Z,13.70
2017-05-30T08:28:11.089Z,13.70
2017-05-30T08:30:37.851Z,13.98
2017-05-30T08:33:04.568Z,13.72
2017-05-30T08:35:31.330Z,13.60
2017-05-30T08:37:58.080Z,14.76
2017-05-30T08:40:24.809Z,14.62
2017-05-30T08:42:51.535Z,14.36
2017-05-30T08:45:18.266Z,13.20
2017-05-30T08:47:44.996Z,13.36
2017-05-30T08:50:11.735Z,14.34
2017-05-30T08:52:38.454Z,13.36
2017-05-30T08:55:05.178Z,13.92
2017-05-30T08:57:31.915Z,14.04
2017-05-30T08:59:58.644Z,15.08
2017-05-30T09:02:25.365Z,15.14
2017-05-30T09:04:52.103Z,14.60
2017-05-30T09:07:18.840Z,12.80
2017-05-30T09:09:45.557Z,13.60
2017-05-30T09:12:12.285Z,13.26
2017-05-30T09:14:39.007Z,13.12
2017-05-30T09:17:05.733Z,13.54
2017-05-30T09:19:32.490Z,13.30
2017-05-30T09:21:59.216Z,12.78
2017-05-30T09:24:25.947Z,12.24
2017-05-30T09:26:52.726Z,15.96
2017-05-30T09:29:19.463Z,13.02
2017-05-30T09:31:46.187Z,12.84
2017-05-30T09:34:12.915Z,13.46
2017-05-30T09:36:39.635Z,13.60
2017-05-30T09:39:06.382Z,13.28
2017-05-30T09:41:33.145Z,11.30
2017-05-30T09:43:59.869Z,11.86
2017-05-30T09:46:26.591Z,12.00
2017-05-30T09:48:53.325Z,11.84
2017-05-30T09:51:20.055Z,11.46
2017-05-30T09:53:46.776Z,11.60
2017-05-30T09:56:13.500Z,11.12
2017-05-30T09:58:40.221Z,11.52
2017-05-30T10:01:06.957Z,10.60
2017-05-30T10:03:33.685Z,10.94
2017-05-30T10:06:00.461Z,11.52
2017-05-30T10:08:27.219Z,11.66
2017-05-30T10:10:54.011Z,11.24
2017-05-30T10:13:20.795Z,11.58
2017-05-30T10:15:47.579Z,10.56
2017-05-30T10:18:14.319Z,10.58
2017-05-30T10:20:41.118Z,10.60
2017-05-30T10:23:07.864Z,10.48
2017-05-30T10:25:34.659Z,10.52
2017-05-30T10:28:01.403Z,9.72
2017-05-30T10:30:28.150Z,9.54
2017-05-30T10:32:54.925Z,9.80
2017-05-30T10:35:21.646Z,9.38
2017-05-30T10:37:48.387Z,8.66
2017-05-30T10:40:15.147Z,9.02
2017-05-30T10:42:41.924Z,9.00
2017-05-30T10:45:08.658Z,7.78
2017-05-30T10:47:35.503Z,8.46
2017-05-30T10:50:02.297Z,8.38
2017-05-30T10:52:29.042Z,7.86
2017-05-30T10:54:55.912Z,7.58
2017-05-30T10:57:22.728Z,7.58
2017-05-30T10:59:49.521Z,7.30
2017-05-30T11:02:16.302Z,8.04
2017-05-30T11:04:43.081Z,6.56
2017-05-30T11:07:09.797Z,7.08
2017-05-30T11:09:36.569Z,7.02
2017-05-30T11:12:03.325Z,6.38
2017-05-30T11:14:30.088Z,6.52
2017-05-30T11:16:56.832Z,6.64
2017-05-30T11:19:23.556Z,6.60
2017-05-30T11:21:50.298Z,7.38
2017-05-30T11:24:17.038Z,7.12
2017-05-30T11:26:43.799Z,7.06
2017-05-30T11:29:10.563Z,6.98
2017-05-30T11:31:37.317Z,7.18
2017-05-30T11:34:04.062Z,6.78
2017-05-30T11:36:30.786Z,6.90
2017-05-30T11:38:57.551Z,5.98
2017-05-30T11:41:24.293Z,6.06
2017-05-30T11:43:51.023Z,5.70
2017-05-30T11:46:17.787Z,6.14
2017-05-30T11:48:44.536Z,5.76
2017-05-30T11:51:11.319Z,6.62
2017-05-30T11:53:38.123Z,6.12
2017-05-30T11:56:04.913Z,6.00
2017-05-30T11:58:31.647Z,6.10
2017-05-30T12:00:58.387Z,5.80
2017-05-30T12:03:25.101Z,6.70
2017-05-30T12:05:51.937Z,6.10
2017-05-30T12:08:18.759Z,4.98
2017-05-30T12:10:45.530Z,5.32
2017-05-30T12:13:12.280Z,5.50
2017-05-30T12:15:39.076Z,6.08
2017-05-30T12:18:05.853Z,5.54
2017-05-30T12:20:33.050Z,4.80
2017-05-30T12:22:59.773Z,4.92
2017-05-30T12:25:26.490Z,4.56
2017-05-30T12:27:53.531Z,5.28
2017-05-30T12:30:20.258Z,4.62
2017-05-30T12:32:46.994Z,4.38
2017-05-30T12:35:13.729Z,4.60
2017-05-30T12:37:40.478Z,5.66
2017-05-30T12:40:07.209Z,5.30
2017-05-30T12:42:33.925Z,4.38
2017-05-30T12:45:00.646Z,4.40
2017-05-30T12:47:27.364Z,4.94
2017-05-30T12:49:54.085Z,4.92
2017-05-30T12:52:20.824Z,5.90
2017-05-30T12:54:47.536Z,4.52
2017-05-30T12:57:14.270Z,5.40
2017-05-30T12:59:41.022Z,5.52
2017-05-30T13:02:07.737Z,4.40
2017-05-30T13:04:34.461Z,4.00
2017-05-30T13:07:01.190Z,4.46
2017-05-30T13:09:28.455Z,4.32
2017-05-30T13:11:55.182Z,5.96
2017-05-30T13:14:21.909Z,4.50
2017-05-30T13:16:48.633Z,4.70
2017-05-30T13:19:15.365Z,4.80
2017-05-30T13:21:42.092Z,4.86
2017-05-30T13:24:08.827Z,5.22
2017-05-30T13:26:35.570Z,5.06
2017-05-30T13:29:02.293Z,4.80
2017-05-30T13:31:29.037Z,5.28
2017-05-30T13:33:55.753Z,4.36
2017-05-30T13:36:22.744Z,5.22
2017-05-30T13:38:49.466Z,4.88
2017-05-30T13:41:16.218Z,5.52
2017-05-30T13:43:42.946Z,4.24
2017-05-30T13:46:09.716Z,4.28
2017-05-30T13:48:36.430Z,4.88
2017-05-30T13:51:03.949Z,5.04
2017-05-30T13:53:30.701Z,4.86
2017-05-30T13:55:57.482Z,4.54
2017-05-30T13:58:24.221Z,5.10
2017-05-30T14:00:50.941Z,5.16
2017-05-30T14:03:17.673Z,4.78
2017-05-30T14:05:44.389Z,4.16
2017-05-30T14:08:11.121Z,5.08
2017-05-30T14:10:37.850Z,5.52
2017-05-30T14:13:04.625Z,4.92
2017-05-30T14:15:31.338Z,5.04
2017-05-30T14:17:58.060Z,4.84
2017-05-30T14:20:24.786Z,4.84
2017-05-30T14:22:51.510Z,4.84
2017-05-30T14:25:18.232Z,5.20
2017-05-30T14:27:44.968Z,4.62
2017-05-30T14:30:11.697Z,6.00
2017-05-30T14:32:38.419Z,4.60
2017-05-30T14:35:05.146Z,5.12
2017-05-30T14:37:31.870Z,5.40
2017-05-30T14:39:58.588Z,5.46
2017-05-30T14:42:25.335Z,5.74
2017-05-30T14:44:52.050Z,4.64
2017-05-30T14:47:18.780Z,5.60
2017-05-30T14:49:45.512Z,5.62
2017-05-30T14:52:12.253Z,5.34
2017-05-30T14:54:38.978Z,5.32
2017-05-30T14:57:05.755Z,5.12
2017-05-30T14:59:33.307Z,4.92
2017-05-30T15:02:00.061Z,4.52
2017-05-30T15:04:26.794Z,4.80
2017-05-30T15:06:53.520Z,5.46
2017-05-30T15:09:20.259Z,5.54
2017-05-30T15:11:47.042Z,5.06
2017-05-30T15:14:13.769Z,5.28
2017-05-30T15:16:40.504Z,4.28
2017-05-30T15:19:07.285Z,5.28
2017-05-30T15:21:34.073Z,6.00
2017-05-30T15:24:00.785Z,5.04
2017-05-30T15:26:27.526Z,6.74
2017-05-30T15:28:54.263Z,6.20
2017-05-30T15:31:21.010Z,5.80
2017-05-30T15:33:47.768Z,5.38
2017-05-30T15:36:14.489Z,5.68
2017-05-30T15:38:41.219Z,5.90
2017-05-30T15:41:07.953Z,6.28
2017-05-30T15:43:34.681Z,5.40
2017-05-30T15:46:01.399Z,5.54
2017-05-30T15:48:28.125Z,6.62
2017-05-30T15:50:54.851Z,6.62
2017-05-30T15:53:21.576Z,5.88
2017-05-30T15:55:48.285Z,6.30
2017-05-30T15:58:15.002Z,6.58
2017-05-30T16:00:41.725Z,6.28
2017-05-30T16:03:08.451Z,6.50
2017-05-30T16:05:35.176Z,6.16
2017-05-30T16:08:01.885Z,6.68
2017-05-30T16:10:28.623Z,6.24
2017-05-30T16:12:55.345Z,6.22
2017-05-30T16:15:22.063Z,5.56
2017-05-30T16:17:48.782Z,6.16
2017-05-30T16:20:15.514Z,5.78
2017-05-30T16:22:42.236Z,6.04
2017-05-30T16:25:08.999Z,6.38
2017-05-30T16:27:35.723Z,5.70
2017-05-30T16:30:02.449Z,7.00
2017-05-30T16:32:29.424Z,6.28
2017-05-30T16:34:56.152Z,5.80
2017-05-30T16:37:22.874Z,6.10
2017-05-30T16:39:49.594Z,6.56
2017-05-30T16:42:16.332Z,5.58
2017-05-30T16:44:43.039Z,6.02
2017-05-30T16:47:09.809Z,6.08
2017-05-30T16:49:36.537Z,5.70
2017-05-30T16:52:03.268Z,6.08
2017-05-30T16:54:29.992Z,5.60
2017-05-30T16:57:07.614Z,6.00
2017-05-30T16:59:42.776Z,6.54
2017-05-30T17:02:20.358Z,5.58
2017-05-30T17:04:47.086Z,5.74
2017-05-30T17:07:13.802Z,5.80
2017-05-30T17:09:40.521Z,6.88
2017-05-30T17:12:07.256Z,6.90
2017-05-30T17:14:33.994Z,6.90
2017-05-30T17:17:00.781Z,6.46
2017-05-30T17:19:27.509Z,7.18
2017-05-30T17:21:54.284Z,5.84
2017-05-30T17:24:20.996Z,6.78
2017-05-30T17:26:47.728Z,6.64
2017-05-30T17:29:14.450Z,6.72
2017-05-30T17:31:41.278Z,7.36
2017-05-30T17:34:08.003Z,6.36
2017-05-30T17:36:34.718Z,5.96
2017-05-30T17:39:01.725Z,6.84
2017-05-30T17:41:28.997Z,6.18
2017-05-30T17:43:55.711Z,7.38
2017-05-30T17:46:22.425Z,7.36
2017-05-30T17:48:49.131Z,7.26
2017-05-30T17:51:15.863Z,7.36
2017-05-30T17:53:42.612Z,7.64
2017-05-30T17:56:09.373Z,7.40
2017-05-30T17:58:36.094Z,6.86
2017-05-30T18:01:02.833Z,7.98
2017-05-30T18:03:29.585Z,8.34
2017-05-30T18:05:56.321Z,7.98
2017-05-30T18:08:23.045Z,8.04
2017-05-30T18:10:49.818Z,8.18
2017-05-30T18:13:16.538Z,7.94
2017-05-30T18:15:43.254Z,8.18
2017-05-30T18:18:09.977Z,9.02
2017-05-30T18:20:36.705Z,8.26
2017-05-30T18:23:03.484Z,8.54
2017-05-30T18:25:30.316Z,9.54
2017-05-30T18:27:57.099Z,9.18
2017-05-30T18:30:23.836Z,8.26
2017-05-30T18:32:50.626Z,8.38
2017-05-30T18:35:17.414Z,10.14
2017-05-30T18:37:44.190Z,10.30
2017-05-30T18:40:11.042Z,9.64
2017-05-30T18:42:37.808Z,10.08
2017-05-30T18:45:04.541Z,11.16
2017-05-30T18:47:31.325Z,9.96
2017-05-30T18:49:58.128Z,9.90
2017-05-30T18:52:40.744Z,10.06
2017-05-30T18:55:07.524Z,10.32
2017-05-30T18:57:34.339Z,10.08
2017-05-30T19:00:01.099Z,10.74
2017-05-30T19:02:27.888Z,10.64
2017-05-30T19:04:54.699Z,10.28
2017-05-30T19:07:21.493Z,10.48
2017-05-30T19:09:48.245Z,10.22
2017-05-30T19:12:15.004Z,10.82
2017-05-30T19:14:41.791Z,10.94
2017-05-30T19:17:09.341Z,11.28
2017-05-30T19:19:36.130Z,11.00
2017-05-30T19:22:02.867Z,10.92
2017-05-30T19:24:29.638Z,10.42
2017-05-30T19:26:56.379Z,11.00
2017-05-30T19:29:23.141Z,10.62
2017-05-30T19:31:49.935Z,10.90
2017-05-30T19:34:16.672Z,10.00
2017-05-30T19:36:43.407Z,12.30
2017-05-30T19:39:10.145Z,12.70
2017-05-30T19:41:36.884Z,11.58
2017-05-30T19:44:03.649Z,10.84
2017-05-30T19:46:30.386Z,11.00
2017-05-30T19:48:57.130Z,10.74
2017-05-30T19:51:23.894Z,11.96
2017-05-30T19:53:50.630Z,11.32
2017-05-30T19:56:17.348Z,11.18
2017-05-30T19:58:44.087Z,10.68
2017-05-30T20:01:10.807Z,10.94
2017-05-30T20:03:37.538Z,11.24
2017-05-30T20:06:04.269Z,10.88
2017-05-30T20:08:31.019Z,12.00
2017-05-30T20:10:57.790Z,12.44
2017-05-30T20:13:24.526Z,11.84
2017-05-30T20:15:51.263Z,12.20
2017-05-30T20:18:17.998Z,12.12
2017-05-30T20:20:44.738Z,12.26
2017-05-30T20:23:11.473Z,11.84
2017-05-30T20:25:38.201Z,13.26
2017-05-30T20:28:04.961Z,12.44
2017-05-30T20:30:31.697Z,13.10
2017-05-30T20:32:58.434Z,12.66
2017-05-30T20:35:25.173Z,12.94
2017-05-30T20:37:51.902Z,11.88
2017-05-30T20:40:18.634Z,11.74
2017-05-30T20:42:45.393Z,11.74
2017-05-30T20:45:12.138Z,11.58
2017-05-30T20:47:38.876Z,12.32
2017-05-30T20:50:05.667Z,12.24
2017-05-30T20:52:32.541Z,11.58
2017-05-30T20:54:59.284Z,12.68
2017-05-30T20:57:26.094Z,13.16
2017-05-30T20:59:52.840Z,12.60
2017-05-30T21:02:19.572Z,12.10
2017-05-30T21:04:46.305Z,12.34
2017-05-30T21:07:13.034Z,12.88
2017-05-30T21:09:39.773Z,12.20
2017-05-30T21:12:06.508Z,12.46
2017-05-30T21:14:33.624Z,12.76
2017-05-30T21:17:00.435Z,12.62
2017-05-30T21:19:27.225Z,12.98
2017-05-30T21:21:54.003Z,12.54
2017-05-30T21:24:20.748Z,12.46
2017-05-30T21:26:47.501Z,13.20
2017-05-30T21:29:14.256Z,12.78
2017-05-30T21:31:40.992Z,13.12
2017-05-30T21:34:07.732Z,13.10
2017-05-30T21:36:34.464Z,13.54
2017-05-30T21:39:01.194Z,11.96
2017-05-30T21:41:27.925Z,12.80
2017-05-30T21:43:55.499Z,11.98
2017-05-30T21:46:22.332Z,12.80
2017-05-30T21:48:49.062Z,13.84
2017-05-30T21:51:15.805Z,12.66
2017-05-30T21:53:42.532Z,13.56
2017-05-30T21:56:09.267Z,13.06
2017-05-30T21:58:35.997Z,12.98
2017-05-30T22:01:02.716Z,13.10
2017-05-30T22:19:31.290Z,12.90
2017-05-30T22:21:58.023Z,13.68
2017-05-30T22:24:24.754Z,14.16
2017-05-30T22:26:51.493Z,13.36
2017-05-30T22:29:18.221Z,14.82
2017-05-30T22:31:44.962Z,13.70
2017-05-30T22:34:11.710Z,14.80
2017-05-30T22:36:38.465Z,13.66
2017-05-30T22:39:05.198Z,14.28
2017-05-30T22:41:31.994Z,14.32
2017-05-30T22:43:58.717Z,14.08
2017-05-30T22:46:25.456Z,14.38
2017-05-30T22:48:52.184Z,13.86
2017-05-30T22:51:18.910Z,14.34
2017-05-30T22:53:45.642Z,12.92
2017-05-30T22:56:12.367Z,14.64
2017-05-30T22:58:39.096Z,14.52
2017-05-30T23:01:05.829Z,13.62
2017-05-30T23:03:32.588Z,14.58
2017-05-30T23:05:59.317Z,13.90
2017-05-30T23:08:26.080Z,15.12
2017-05-30T23:10:52.819Z,14.46
2017-05-30T23:13:19.554Z,14.66
2017-05-30T23:15:46.294Z,13.88
2017-05-30T23:18:13.023Z,14.58
2017-05-30T23:20:39.750Z,14.52
2017-05-30T23:23:06.484Z,14.18
2017-05-30T23:25:33.209Z,14.70
2017-05-30T23:27:59.932Z,14.44
2017-05-30T23:30:27.309Z,13.48
2017-05-30T23:32:54.046Z,13.94
2017-05-30T23:35:20.777Z,14.46
2017-05-30T23:37:47.508Z,14.02
2017-05-30T23:40:14.300Z,13.94
2017-05-30T23:42:41.035Z,15.00
2017-05-30T23:45:07.771Z,15.92
2017-05-30T23:47:34.502Z,14.40
2017-05-30T23:50:01.235Z,14.56
2017-05-30T23:52:27.975Z,14.06
2017-05-30T23:54:54.758Z,15.22
2017-05-30T23:57:21.485Z,15.06
